Antlers Park, Minnesota
Current Conditions -  °F | °C
As of 3:46 AM on Sunday 23 Nov 2014 (Local Time) from KLVN Reporting Station
Broken Clouds Broken Clouds  
Wind Chill: 50°   Ceiling: 1400
Heat Index: 50°   Visibility: 10mi
Dew Point: 48°   Wind: 9mph
Humidity: 94%   Direction: 200°SSW
Pressure: 29.44"   Gusts: NA
Location:  44.6349°N, 93.283°W
Report Text: KLVN 230946Z AUTO 20008KT 10SM BKN014 10/09 A2944 RMK AO2
Loading
Personal Weather Stations






























Interactive Weather Map New forecast layout! Learn more

10-Day Weather Forecast

Advertisements
Track Severe Weather on mobile